RJBM(METAR)
02/28 07:00
METAR RJBM 272200Z 17004KT 140V200 9999 FEW020 BKN050 03/M02 Q1026
RMK 1CU020 7SC050 A3030=
戻る
トップページへ戻る
IMOC Co,.Ltd.